createdAt,value
2017-04-29T00:00:48.749Z,75.55
2017-04-29T00:01:50.165Z,77.36
2017-04-29T00:02:51.581Z,77.36
2017-04-29T00:03:52.996Z,77.73
2017-04-29T00:04:54.407Z,76.50
2017-04-29T00:05:55.825Z,75.11
2017-04-29T00:06:57.247Z,74.63
2017-04-29T00:07:58.667Z,74.54
2017-04-29T00:09:00.084Z,74.63
2017-04-29T00:10:01.501Z,73.78
2017-04-29T00:11:02.915Z,73.59
2017-04-29T00:12:04.341Z,74.35
2017-04-29T00:13:05.759Z,73.78
2017-04-29T00:14:07.191Z,74.44
2017-04-29T00:15:08.654Z,75.68
2017-04-29T00:16:10.074Z,75.68
2017-04-29T00:17:11.492Z,75.64
2017-04-29T00:18:12.917Z,76.06
2017-04-29T00:19:14.342Z,75.87
2017-04-29T00:20:15.758Z,75.49
2017-04-29T00:21:17.176Z,75.40
2017-04-29T00:22:18.592Z,76.12
2017-04-29T00:23:20.010Z,76.25
2017-04-29T00:24:21.428Z,76.44
2017-04-29T00:25:22.847Z,76.25
2017-04-29T00:26:24.267Z,75.78
2017-04-29T00:27:25.686Z,76.16
2017-04-29T00:28:27.105Z,77.45
2017-04-29T00:29:28.519Z,78.11
2017-04-29T00:30:29.938Z,78.59
2017-04-29T00:31:31.358Z,77.92
2017-04-29T00:32:32.781Z,78.40
2017-04-29T00:33:34.194Z,78.78
2017-04-29T00:34:35.610Z,77.77
2017-04-29T00:35:37.025Z,77.68
2017-04-29T00:36:38.436Z,76.63
2017-04-29T00:37:39.850Z,77.11
2017-04-29T00:38:41.261Z,76.63
2017-04-29T00:39:42.706Z,77.07
2017-04-29T00:40:44.090Z,77.07
2017-04-29T00:41:45.504Z,76.44
2017-04-29T00:42:46.917Z,77.20
2017-04-29T00:43:48.334Z,76.63
2017-04-29T00:44:49.754Z,75.49
2017-04-29T00:45:51.175Z,75.59
2017-04-29T00:46:52.592Z,76.50
2017-04-29T00:47:54.018Z,77.45
2017-04-29T00:48:55.423Z,78.02
2017-04-29T00:49:56.836Z,78.40
2017-04-29T00:50:58.257Z,78.11
2017-04-29T00:51:59.679Z,78.69
2017-04-29T00:53:01.157Z,79.16
2017-04-29T00:54:02.579Z,79.06
2017-04-29T00:55:03.996Z,79.35
2017-04-29T00:56:05.421Z,78.69
2017-04-29T00:57:06.911Z,78.69
2017-04-29T00:58:08.337Z,79.16
2017-04-29T00:59:09.757Z,79.35
2017-04-29T01:00:11.182Z,79.06
2017-04-29T01:01:12.608Z,78.21
2017-04-29T01:02:14.023Z,77.26
2017-04-29T01:03:15.438Z,77.17
2017-04-29T01:04:16.852Z,77.11
2017-04-29T01:05:18.266Z,77.64
2017-04-29T01:06:19.687Z,77.07
2017-04-29T01:07:21.102Z,77.64
2017-04-29T01:08:22.525Z,78.50
2017-04-29T01:09:23.939Z,77.55
2017-04-29T01:10:25.367Z,77.77
2017-04-29T01:11:26.785Z,77.11
2017-04-29T01:12:28.205Z,76.16
2017-04-29T01:13:29.619Z,75.78
2017-04-29T01:14:31.039Z,75.96
2017-04-29T01:15:32.453Z,75.21
2017-04-29T01:16:33.867Z,74.73
2017-04-29T01:17:35.280Z,75.11
2017-04-29T01:18:36.694Z,75.30
2017-04-29T01:19:38.110Z,75.87
2017-04-29T01:20:39.525Z,75.68
2017-04-29T01:21:40.941Z,75.68
2017-04-29T01:22:42.362Z,75.40
2017-04-29T01:23:43.775Z,75.87
2017-04-29T01:24:45.188Z,77.01
2017-04-29T01:25:46.609Z,75.68
2017-04-29T01:26:48.027Z,75.87
2017-04-29T01:27:49.444Z,75.02
2017-04-29T01:28:50.863Z,75.49
2017-04-29T01:29:52.283Z,74.82
2017-04-29T01:30:53.707Z,75.59
2017-04-29T01:31:55.121Z,75.34
2017-04-29T01:32:56.537Z,74.35
2017-04-29T01:33:57.952Z,75.02
2017-04-29T01:34:59.368Z,75.40
2017-04-29T01:36:00.839Z,75.68
2017-04-29T01:37:02.251Z,76.35
2017-04-29T01:38:03.667Z,76.16
2017-04-29T01:39:05.088Z,76.25
2017-04-29T01:40:06.500Z,76.35
2017-04-29T01:41:07.915Z,76.35
2017-04-29T01:42:09.325Z,76.16
2017-04-29T01:43:10.742Z,75.87
2017-04-29T01:44:12.160Z,76.25
2017-04-29T01:45:13.578Z,75.68
2017-04-29T01:46:15.004Z,76.44
2017-04-29T01:47:16.426Z,76.44
2017-04-29T01:48:17.847Z,76.06
2017-04-29T01:49:19.264Z,76.54
2017-04-29T01:50:20.675Z,75.87
2017-04-29T01:51:22.094Z,76.54
2017-04-29T01:52:23.509Z,77.20
2017-04-29T01:53:24.929Z,76.44
2017-04-29T01:54:26.347Z,75.49
2017-04-29T01:55:27.767Z,76.16
2017-04-29T01:56:29.192Z,76.35
2017-04-29T01:57:30.605Z,76.63
2017-04-29T01:58:32.025Z,77.11
2017-04-29T01:59:33.446Z,77.77
2017-04-29T02:00:34.861Z,77.30
2017-04-29T02:01:36.281Z,77.20
2017-04-29T02:02:37.701Z,77.77
2017-04-29T02:03:39.124Z,77.64
2017-04-29T02:04:40.542Z,77.20
2017-04-29T02:05:41.955Z,76.73
2017-04-29T02:06:43.371Z,77.11
2017-04-29T02:07:44.793Z,76.40
2017-04-29T02:08:46.203Z,77.17
2017-04-29T02:09:47.624Z,77.73
2017-04-29T02:10:49.042Z,77.36
2017-04-29T02:11:50.465Z,77.64
2017-04-29T02:12:51.884Z,77.87
2017-04-29T02:13:53.297Z,77.58
2017-04-29T02:14:54.729Z,77.73
2017-04-29T02:15:56.133Z,77.77
2017-04-29T02:16:57.556Z,77.73
2017-04-29T02:17:59.066Z,77.07
2017-04-29T02:19:00.481Z,77.77
2017-04-29T02:20:01.902Z,77.36
2017-04-29T02:21:03.319Z,77.36
2017-04-29T02:22:04.733Z,77.64
2017-04-29T02:23:06.147Z,78.97
2017-04-29T02:24:07.564Z,79.73
2017-04-29T02:25:08.986Z,79.92
2017-04-29T02:26:10.406Z,80.02
2017-04-29T02:27:11.817Z,79.83
2017-04-29T02:28:13.237Z,79.35
2017-04-29T02:29:14.650Z,79.06
2017-04-29T02:30:16.077Z,79.35
2017-04-29T02:31:17.486Z,77.77
2017-04-29T02:32:18.903Z,78.44
2017-04-29T02:33:20.325Z,78.50
2017-04-29T02:34:21.737Z,78.21
2017-04-29T02:35:23.155Z,78.40
2017-04-29T02:36:24.576Z,79.35
2017-04-29T02:37:25.996Z,79.16
2017-04-29T02:38:27.415Z,79.25
2017-04-29T02:39:28.829Z,80.07
2017-04-29T02:40:30.247Z,80.45
2017-04-29T02:41:31.662Z,80.35
2017-04-29T02:42:33.085Z,79.25
2017-04-29T02:43:34.500Z,79.69
2017-04-29T02:44:35.914Z,80.26
2017-04-29T02:45:37.327Z,79.88
2017-04-29T02:46:38.743Z,79.73
2017-04-29T02:47:40.160Z,79.16
2017-04-29T02:48:41.573Z,78.40
2017-04-29T02:49:42.987Z,79.12
2017-04-29T02:50:44.400Z,79.69
2017-04-29T02:51:45.819Z,80.07
2017-04-29T02:52:47.235Z,80.26
2017-04-29T02:53:48.687Z,79.50
2017-04-29T02:54:50.104Z,79.12
2017-04-29T02:55:51.517Z,78.64
2017-04-29T02:56:52.933Z,78.64
2017-04-29T02:57:54.353Z,79.88
2017-04-29T02:58:55.759Z,81.12
2017-04-29T02:59:57.185Z,81.30
2017-04-29T03:00:58.685Z,82.50
2017-04-29T03:02:00.100Z,82.45
2017-04-29T03:03:01.510Z,82.21
2017-04-29T03:04:03.025Z,82.88
2017-04-29T03:05:04.444Z,82.97
2017-04-29T03:06:05.857Z,82.88
2017-04-29T03:07:07.268Z,82.21
2017-04-29T03:08:08.689Z,82.78
2017-04-29T03:09:10.105Z,83.16
2017-04-29T03:10:11.528Z,83.83
2017-04-29T03:11:12.939Z,84.30
2017-04-29T03:12:14.364Z,84.49
2017-04-29T03:13:15.779Z,84.68
2017-04-29T03:14:17.197Z,84.83
2017-04-29T03:15:18.612Z,85.11
2017-04-29T03:16:20.026Z,85.53
2017-04-29T03:17:21.445Z,85.44
2017-04-29T03:18:22.861Z,85.40
2017-04-29T03:19:24.277Z,85.30
2017-04-29T03:20:25.692Z,85.59
2017-04-29T03:21:27.103Z,85.97
2017-04-29T03:22:28.515Z,86.44
2017-04-29T03:23:29.933Z,86.35
2017-04-29T03:24:31.346Z,86.16
2017-04-29T03:25:32.759Z,85.06
2017-04-29T03:26:34.178Z,84.11
2017-04-29T03:27:35.591Z,83.73
2017-04-29T03:28:37.010Z,84.59
2017-04-29T03:29:38.429Z,84.87
2017-04-29T03:30:39.846Z,83.73
2017-04-29T03:31:41.264Z,84.59
2017-04-29T03:32:42.682Z,84.49
2017-04-29T03:33:44.099Z,84.01
2017-04-29T03:34:45.511Z,83.54
2017-04-29T03:35:46.923Z,83.54
2017-04-29T03:36:48.349Z,82.82
2017-04-29T03:37:49.767Z,82.40
2017-04-29T03:38:51.187Z,82.73
2017-04-29T03:39:52.604Z,82.26
2017-04-29T03:40:54.020Z,81.40
2017-04-29T03:41:55.443Z,82.35
2017-04-29T03:42:56.865Z,81.21
2017-04-29T03:43:58.279Z,81.87
2017-04-29T03:44:59.690Z,82.45
2017-04-29T03:46:01.108Z,81.87
2017-04-29T03:47:02.523Z,81.40
2017-04-29T03:48:03.939Z,81.40
2017-04-29T03:49:05.352Z,81.49
2017-04-29T03:50:06.772Z,81.40
2017-04-29T03:51:08.184Z,81.97
2017-04-29T03:52:09.608Z,82.16
2017-04-29T03:53:11.026Z,81.40
2017-04-29T03:54:12.442Z,81.02
2017-04-29T03:55:13.854Z,80.55
2017-04-29T03:56:15.273Z,80.55
2017-04-29T03:57:16.685Z,81.12
2017-04-29T03:58:18.106Z,81.59
2017-04-29T03:59:19.514Z,82.16
2017-04-29T04:00:20.937Z,81.68
2017-04-29T04:01:22.352Z,81.59
2017-04-29T04:02:23.778Z,81.59
2017-04-29T04:03:25.193Z,82.45
2017-04-29T04:04:26.642Z,81.97
2017-04-29T04:05:28.028Z,81.59
2017-04-29T04:06:29.440Z,82.26
2017-04-29T04:07:30.856Z,82.16
2017-04-29T04:08:32.270Z,82.07
2017-04-29T04:09:33.681Z,82.26
2017-04-29T04:10:35.097Z,83.01
2017-04-29T04:11:36.524Z,81.97
2017-04-29T04:12:37.937Z,82.45
2017-04-29T04:13:39.350Z,82.35
2017-04-29T04:14:40.764Z,82.26
2017-04-29T04:15:42.200Z,81.59
2017-04-29T04:16:43.616Z,81.30
2017-04-29T04:17:45.112Z,80.83
2017-04-29T04:18:46.555Z,81.49
2017-04-29T04:19:47.969Z,81.12
2017-04-29T04:20:49.391Z,81.40
2017-04-29T04:21:50.817Z,81.68
2017-04-29T04:22:52.231Z,81.16
2017-04-29T04:23:53.650Z,81.21
2017-04-29T04:24:55.065Z,81.30
2017-04-29T04:25:56.479Z,81.02
2017-04-29T04:26:57.895Z,81.59
2017-04-29T04:27:59.309Z,80.93
2017-04-29T04:29:00.726Z,81.12
2017-04-29T04:30:02.149Z,81.21
2017-04-29T04:31:03.564Z,82.07
2017-04-29T04:32:04.982Z,82.45
2017-04-29T04:33:06.396Z,81.93
2017-04-29T04:34:07.810Z,83.01
2017-04-29T04:35:09.234Z,82.45
2017-04-29T04:36:10.649Z,81.87
2017-04-29T04:37:12.074Z,82.03
2017-04-29T04:38:13.486Z,82.88
2017-04-29T04:39:14.909Z,82.92
2017-04-29T04:40:16.327Z,81.87
2017-04-29T04:41:17.743Z,81.49
2017-04-29T04:42:19.160Z,81.74
2017-04-29T04:43:20.574Z,81.68
2017-04-29T04:44:21.990Z,82.45
2017-04-29T04:45:23.412Z,81.78
2017-04-29T04:46:24.829Z,80.83
2017-04-29T04:47:26.245Z,80.83
2017-04-29T04:48:27.662Z,80.64
2017-04-29T04:49:29.079Z,81.12
2017-04-29T04:50:30.488Z,80.93
2017-04-29T04:51:31.904Z,81.02
2017-04-29T04:52:33.322Z,80.55
2017-04-29T04:53:34.737Z,81.21
2017-04-29T04:54:36.152Z,81.87
2017-04-29T04:55:37.568Z,81.59
2017-04-29T04:56:38.992Z,82.64
2017-04-29T04:57:40.412Z,82.45
2017-04-29T04:58:41.831Z,81.40
2017-04-29T04:59:43.257Z,81.49
2017-04-29T05:00:44.673Z,81.40
2017-04-29T05:01:46.089Z,81.17
2017-04-29T05:02:47.509Z,82.45
2017-04-29T05:03:48.932Z,82.07
2017-04-29T05:04:50.349Z,81.30
2017-04-29T05:05:51.771Z,81.30
2017-04-29T05:06:53.190Z,81.78
2017-04-29T05:07:54.603Z,81.87
2017-04-29T05:08:56.023Z,82.40
2017-04-29T05:09:57.439Z,81.30
2017-04-29T05:10:58.857Z,81.02
2017-04-29T05:12:00.280Z,81.02
2017-04-29T05:13:01.696Z,80.93
2017-04-29T05:14:03.120Z,80.74
2017-04-29T05:15:04.541Z,79.88
2017-04-29T05:16:05.968Z,79.83
2017-04-29T05:17:07.392Z,79.69
2017-04-29T05:18:08.804Z,80.26
2017-04-29T05:19:10.232Z,79.92
2017-04-29T05:20:11.648Z,79.35
2017-04-29T05:21:13.066Z,79.44
2017-04-29T05:22:14.482Z,78.50
2017-04-29T05:23:15.898Z,78.88
2017-04-29T05:24:17.317Z,78.69
2017-04-29T05:25:18.740Z,78.40
2017-04-29T05:26:20.154Z,78.59
2017-04-29T05:27:21.579Z,79.22
2017-04-29T05:28:22.999Z,80.02
2017-04-29T05:29:24.416Z,78.97
2017-04-29T05:30:25.833Z,79.22
2017-04-29T05:31:27.249Z,79.35
2017-04-29T05:32:28.666Z,78.59
2017-04-29T05:33:30.085Z,78.74
2017-04-29T05:34:31.504Z,79.92
2017-04-29T05:35:32.928Z,79.35
2017-04-29T05:36:34.349Z,79.16
2017-04-29T05:37:35.762Z,79.44
2017-04-29T05:38:37.181Z,78.11
2017-04-29T05:39:38.602Z,77.55
2017-04-29T05:40:40.041Z,76.78
2017-04-29T05:41:41.461Z,77.36
2017-04-29T05:42:42.879Z,77.73
2017-04-29T05:43:44.296Z,77.55
2017-04-29T05:44:45.725Z,76.97
2017-04-29T05:45:47.145Z,76.12
2017-04-29T05:46:48.557Z,76.21
2017-04-29T05:47:50.736Z,76.50
2017-04-29T05:48:52.154Z,76.12
2017-04-29T05:49:53.570Z,76.16
2017-04-29T05:50:54.994Z,75.78
2017-04-29T05:51:56.407Z,76.12
2017-04-29T05:52:57.823Z,75.64
2017-04-29T05:53:59.245Z,75.93
2017-04-29T05:55:00.666Z,76.16
2017-04-29T05:56:02.089Z,75.30
2017-04-29T05:57:03.508Z,75.40
2017-04-29T05:58:04.923Z,75.11
2017-04-29T05:59:06.353Z,75.02
2017-04-29T06:00:07.762Z,75.74
2017-04-29T06:01:09.186Z,76.63
2017-04-29T06:02:10.606Z,76.73
2017-04-29T06:03:12.033Z,76.21
2017-04-29T06:04:13.459Z,76.12
2017-04-29T06:05:14.880Z,76.21
2017-04-29T06:06:16.297Z,76.21
2017-04-29T06:07:17.719Z,76.03
2017-04-29T06:08:19.141Z,75.87
2017-04-29T06:09:20.568Z,75.78
2017-04-29T06:10:21.986Z,75.78
2017-04-29T06:11:23.407Z,76.25
2017-04-29T06:12:24.830Z,76.06
2017-04-29T06:13:26.250Z,74.73
2017-04-29T06:14:27.671Z,74.26
2017-04-29T06:15:29.089Z,74.82
2017-04-29T06:16:30.508Z,74.73
2017-04-29T06:17:31.928Z,74.92
2017-04-29T06:18:33.349Z,74.54
2017-04-29T06:19:34.769Z,73.97
2017-04-29T06:20:36.193Z,73.30
2017-04-29T06:21:37.608Z,74.07
2017-04-29T06:22:39.028Z,73.69
2017-04-29T06:23:40.449Z,73.69
2017-04-29T06:24:41.872Z,73.78
2017-04-29T06:25:43.288Z,74.16
2017-04-29T06:26:44.714Z,73.40
2017-04-29T06:27:46.135Z,72.30
2017-04-29T06:28:47.555Z,73.25
2017-04-29T06:29:48.985Z,73.88
2017-04-29T06:30:50.412Z,74.35
2017-04-29T06:31:51.840Z,74.73
2017-04-29T06:32:53.258Z,73.49
2017-04-29T06:33:54.685Z,73.02
2017-04-29T06:34:56.108Z,73.15
2017-04-29T06:35:57.530Z,73.49
2017-04-29T06:36:58.954Z,73.97
2017-04-29T06:38:00.382Z,73.59
2017-04-29T06:39:01.807Z,74.44
2017-04-29T06:40:03.259Z,74.26
2017-04-29T06:41:04.675Z,73.34
2017-04-29T06:42:06.106Z,73.25
2017-04-29T06:43:07.526Z,74.10
2017-04-29T06:44:08.945Z,73.40
2017-04-29T06:45:10.370Z,73.11
2017-04-29T06:46:11.792Z,73.78
2017-04-29T06:47:13.219Z,73.30
2017-04-29T06:48:14.648Z,72.86
2017-04-29T06:49:16.069Z,72.77
2017-04-29T06:50:17.493Z,73.91
2017-04-29T06:51:18.917Z,72.86
2017-04-29T06:52:20.331Z,74.20
2017-04-29T06:53:21.754Z,73.72
2017-04-29T06:54:23.167Z,73.44
2017-04-29T06:55:24.610Z,73.30
2017-04-29T06:56:26.008Z,73.97
2017-04-29T06:57:27.436Z,74.01
2017-04-29T06:58:28.855Z,73.53
2017-04-29T06:59:30.294Z,74.10
2017-04-29T07:00:31.717Z,73.88
2017-04-29T07:01:33.144Z,73.78
2017-04-29T07:02:34.566Z,72.77
2017-04-29T07:03:35.977Z,73.25
2017-04-29T07:04:37.398Z,74.10
2017-04-29T07:05:38.820Z,73.15
2017-04-29T07:06:40.237Z,72.67
2017-04-29T07:07:41.691Z,72.86
2017-04-29T07:08:43.077Z,73.15
2017-04-29T07:09:44.501Z,72.67
2017-04-29T07:10:45.916Z,73.10
2017-04-29T07:11:47.329Z,72.05
2017-04-29T07:12:48.751Z,72.42
2017-04-29T07:13:50.179Z,71.53
2017-04-29T07:14:51.605Z,69.92
2017-04-29T07:15:53.031Z,69.63
2017-04-29T07:16:54.454Z,69.15
2017-04-29T07:17:55.881Z,69.38
2017-04-29T07:18:57.297Z,69.57
2017-04-29T07:19:58.715Z,71.09
2017-04-29T07:21:00.136Z,70.52
2017-04-29T07:22:01.556Z,70.81
2017-04-29T07:23:02.973Z,70.72
2017-04-29T07:24:04.397Z,68.33
2017-04-29T07:25:05.829Z,67.86
2017-04-29T07:26:07.250Z,68.24
2017-04-29T07:27:08.672Z,69.19
2017-04-29T07:28:10.091Z,68.90
2017-04-29T07:29:11.517Z,68.62
2017-04-29T07:30:12.939Z,68.15
2017-04-29T07:31:14.364Z,67.57
2017-04-29T07:32:15.790Z,67.80
2017-04-29T07:33:17.211Z,68.08
2017-04-29T07:34:18.640Z,64.18
2017-04-29T07:35:20.079Z,64.18
2017-04-29T07:36:21.474Z,64.75
2017-04-29T07:37:22.903Z,63.04
2017-04-29T07:38:24.335Z,64.08
2017-04-29T07:39:25.749Z,64.69
2017-04-29T07:40:27.184Z,64.84
2017-04-29T07:41:28.610Z,63.60
2017-04-29T07:42:30.032Z,64.18
2017-04-29T07:43:31.462Z,64.28
2017-04-29T07:44:32.917Z,63.42
2017-04-29T07:45:34.341Z,63.64
2017-04-29T07:46:35.770Z,62.68
2017-04-29T07:47:37.205Z,61.54
2017-04-29T07:48:38.633Z,62.68
2017-04-29T07:49:40.059Z,63.51
2017-04-29T07:50:41.485Z,64.65
2017-04-29T07:51:42.911Z,64.62
2017-04-29T07:52:44.345Z,64.62
2017-04-29T07:53:45.769Z,65.61
2017-04-29T07:54:47.192Z,65.38
2017-04-29T07:55:48.623Z,65.77
2017-04-29T07:56:50.045Z,66.43
2017-04-29T07:57:51.467Z,67.00
2017-04-29T07:58:52.888Z,66.05
2017-04-29T07:59:54.314Z,66.53
2017-04-29T08:00:55.731Z,65.95
2017-04-29T08:01:57.158Z,66.62
2017-04-29T08:02:58.570Z,66.33
2017-04-29T08:04:00.001Z,64.62
2017-04-29T08:05:01.432Z,65.38
2017-04-29T08:06:02.844Z,65.61
2017-04-29T08:07:04.273Z,64.65
2017-04-29T08:08:05.696Z,64.56
2017-04-29T08:09:07.124Z,63.32
2017-04-29T08:10:08.546Z,63.32
2017-04-29T08:11:09.968Z,63.54
2017-04-29T08:12:11.392Z,61.93
2017-04-29T08:13:12.815Z,61.83
2017-04-29T08:14:14.248Z,61.93
2017-04-29T08:15:15.671Z,60.78
2017-04-29T08:16:17.088Z,61.45
2017-04-29T08:17:18.514Z,58.97
2017-04-29T08:18:19.946Z,59.74
2017-04-29T08:19:21.380Z,60.88
2017-04-29T08:20:22.799Z,60.72
2017-04-29T08:21:24.230Z,59.83
2017-04-29T08:22:25.661Z,59.06
2017-04-29T08:23:27.092Z,57.48
2017-04-29T08:24:28.512Z,59.06
2017-04-29T08:25:29.936Z,57.45
2017-04-29T08:26:31.363Z,56.90
2017-04-29T08:27:32.788Z,55.98
2017-04-29T08:28:34.208Z,55.57
2017-04-29T08:29:35.636Z,53.66
2017-04-29T08:30:37.064Z,53.38
2017-04-29T08:31:38.481Z,54.26
2017-04-29T08:32:39.915Z,55.60
2017-04-29T08:33:41.340Z,54.64
2017-04-29T08:34:43.644Z,55.19
2017-04-29T08:35:45.072Z,55.66
2017-04-29T08:36:46.586Z,54.59
2017-04-29T08:37:48.016Z,53.85
2017-04-29T08:38:49.438Z,54.71
2017-04-29T08:39:50.863Z,55.19
2017-04-29T08:40:52.282Z,51.25
2017-04-29T08:41:53.722Z,50.49
2017-04-29T08:42:55.149Z,47.25
2017-04-29T08:43:56.575Z,47.82
2017-04-29T08:44:57.997Z,48.97
2017-04-29T08:45:59.423Z,50.59
2017-04-29T08:47:00.849Z,51.16
2017-04-29T08:48:02.280Z,49.92
2017-04-29T08:49:03.706Z,52.20
2017-04-29T08:50:05.132Z,51.64
2017-04-29T08:51:06.562Z,50.49
2017-04-29T08:52:07.988Z,52.20
2017-04-29T08:53:09.409Z,52.59
2017-04-29T08:54:10.839Z,52.68
2017-04-29T08:55:12.264Z,50.59
2017-04-29T08:56:13.688Z,53.44
2017-04-29T08:57:15.128Z,53.73
2017-04-29T08:58:16.540Z,52.84
2017-04-29T08:59:17.968Z,52.66
2017-04-29T09:00:19.389Z,51.82
2017-04-29T09:01:20.813Z,53.35
2017-04-29T09:02:23.096Z,55.07
2017-04-29T09:03:24.522Z,54.88
2017-04-29T09:04:25.953Z,53.73
2017-04-29T09:05:27.373Z,56.59
2017-04-29T09:06:28.796Z,57.45
2017-04-29T09:07:30.226Z,55.83
2017-04-29T09:08:31.651Z,56.59
2017-04-29T09:09:33.074Z,56.59
2017-04-29T09:10:34.506Z,56.62
2017-04-29T09:11:35.924Z,56.68
2017-04-29T09:12:37.346Z,57.45
2017-04-29T09:13:38.777Z,58.40
2017-04-29T09:14:40.196Z,57.73
2017-04-29T09:15:41.622Z,58.30
2017-04-29T09:16:43.044Z,58.40
2017-04-29T09:17:44.464Z,57.92
2017-04-29T09:18:45.894Z,57.73
2017-04-29T09:19:47.317Z,58.62
2017-04-29T09:20:48.746Z,57.26
2017-04-29T09:21:50.178Z,55.92
2017-04-29T09:22:51.608Z,56.78
2017-04-29T09:23:53.041Z,56.62
2017-04-29T09:24:54.454Z,57.00
2017-04-29T09:25:55.889Z,56.49
2017-04-29T09:26:57.321Z,57.38
2017-04-29T09:27:58.757Z,57.48
2017-04-29T09:29:00.185Z,57.73
2017-04-29T09:30:01.613Z,55.44
2017-04-29T09:31:03.035Z,57.86
2017-04-29T09:32:04.465Z,56.52
2017-04-29T09:33:05.891Z,55.66
2017-04-29T09:34:07.322Z,56.24
2017-04-29T09:35:08.761Z,57.38
2017-04-29T09:36:10.192Z,54.21
2017-04-29T09:37:11.614Z,54.68
2017-04-29T09:38:13.046Z,54.11
2017-04-29T09:39:14.476Z,54.30
2017-04-29T09:40:15.893Z,53.19
2017-04-29T09:41:17.326Z,53.00
2017-04-29T09:42:18.757Z,53.09
2017-04-29T09:43:20.180Z,54.61
2017-04-29T09:44:21.607Z,53.56
2017-04-29T09:45:23.036Z,53.88
2017-04-29T09:46:24.458Z,53.85
2017-04-29T09:47:25.888Z,54.14
2017-04-29T09:48:27.315Z,53.66
2017-04-29T09:49:28.739Z,53.02
2017-04-29T09:50:30.162Z,52.92
2017-04-29T09:51:31.588Z,53.97
2017-04-29T09:52:33.016Z,52.64
2017-04-29T09:53:34.449Z,51.88
2017-04-29T09:54:35.871Z,50.85
2017-04-29T09:55:37.304Z,50.09
2017-04-29T09:56:38.723Z,53.17
2017-04-29T09:57:40.166Z,53.27
2017-04-29T09:58:42.224Z,51.17
2017-04-29T09:59:44.245Z,49.73
2017-04-29T10:00:45.675Z,52.59
2017-04-29T10:01:47.102Z,51.23
2017-04-29T10:02:48.541Z,51.54
2017-04-29T10:03:49.965Z,49.52
2017-04-29T10:04:51.402Z,50.09
2017-04-29T10:05:52.825Z,52.09
2017-04-29T10:06:54.261Z,50.98
2017-04-29T10:07:55.681Z,51.23
2017-04-29T10:08:57.102Z,51.23
2017-04-29T10:09:58.528Z,49.62
2017-04-29T10:10:59.955Z,49.42
2017-04-29T10:12:01.389Z,48.94
2017-04-29T10:13:02.813Z,48.88
2017-04-29T10:14:04.239Z,49.62
2017-04-29T10:15:05.665Z,50.67
2017-04-29T10:16:07.099Z,49.54
2017-04-29T10:17:08.518Z,49.85
2017-04-29T10:18:09.956Z,48.02
2017-04-29T10:19:11.397Z,48.78
2017-04-29T10:20:12.823Z,48.71
2017-04-29T10:21:14.250Z,47.44
2017-04-29T10:22:15.684Z,47.18
2017-04-29T10:23:17.105Z,48.33
2017-04-29T10:24:18.551Z,49.26
2017-04-29T10:25:19.967Z,49.54
2017-04-29T10:26:21.409Z,48.85
2017-04-29T10:27:22.850Z,52.22
2017-04-29T10:28:24.280Z,52.40
2017-04-29T10:29:25.702Z,52.22
2017-04-29T10:30:27.136Z,49.66
2017-04-29T10:31:28.565Z,46.39
2017-04-29T10:32:30.001Z,49.26
2017-04-29T10:33:31.440Z,50.04
2017-04-29T10:34:32.868Z,50.02
2017-04-29T10:35:34.300Z,49.64
2017-04-29T10:36:35.728Z,50.21
2017-04-29T10:37:37.684Z,50.47
2017-04-29T10:38:38.517Z,49.52
2017-04-29T10:39:39.945Z,50.67
2017-04-29T10:40:41.372Z,51.33
2017-04-29T10:41:42.811Z,50.49
2017-04-29T10:42:44.235Z,50.52
2017-04-29T10:43:45.655Z,50.90
2017-04-29T10:44:47.082Z,48.90
2017-04-29T10:45:48.507Z,49.28
2017-04-29T10:46:49.929Z,49.30
2017-04-29T10:47:51.353Z,48.25
2017-04-29T10:48:52.777Z,48.44
2017-04-29T10:49:54.210Z,46.63
2017-04-29T10:50:55.643Z,47.52
2017-04-29T10:51:57.081Z,47.34
2017-04-29T10:52:58.503Z,44.12
2017-04-29T10:53:59.931Z,44.40
2017-04-29T10:55:01.356Z,44.23
2017-04-29T10:56:02.783Z,44.50
2017-04-29T10:57:04.219Z,42.76
2017-04-29T10:58:05.634Z,44.55
2017-04-29T10:59:07.710Z,47.32
2017-04-29T11:00:09.155Z,44.79
2017-04-29T11:01:10.582Z,44.60
2017-04-29T11:02:12.005Z,46.42
2017-04-29T11:03:13.428Z,46.03
2017-04-29T11:04:14.854Z,45.58
2017-04-29T11:05:16.297Z,45.96
2017-04-29T11:06:17.719Z,46.99
2017-04-29T11:07:19.144Z,47.08
2017-04-29T11:08:20.577Z,47.78
2017-04-29T11:09:22.007Z,47.18
2017-04-29T11:10:23.435Z,47.85
2017-04-29T11:11:24.864Z,47.37
2017-04-29T11:12:26.292Z,47.94
2017-04-29T11:13:27.723Z,47.08
2017-04-29T11:14:29.150Z,45.94
2017-04-29T11:15:30.588Z,45.65
2017-04-29T11:16:32.009Z,45.43
2017-04-29T11:17:34.208Z,46.22
2017-04-29T11:18:35.633Z,45.75
2017-04-29T11:19:37.070Z,47.44
2017-04-29T11:20:38.607Z,45.92
2017-04-29T11:21:40.036Z,44.79
2017-04-29T11:22:41.466Z,44.98
2017-04-29T11:23:42.894Z,46.03
2017-04-29T11:24:44.326Z,44.81
2017-04-29T11:25:45.767Z,43.66
2017-04-29T11:26:47.190Z,44.07
2017-04-29T11:27:48.616Z,43.12
2017-04-29T11:28:50.038Z,41.30
2017-04-29T11:29:51.465Z,42.66
2017-04-29T11:30:52.894Z,44.19
2017-04-29T11:31:54.315Z,44.57
2017-04-29T11:32:55.736Z,43.95
2017-04-29T11:33:57.172Z,45.10
2017-04-29T11:34:58.594Z,44.89
2017-04-29T11:36:00.020Z,45.46
2017-04-29T11:37:01.446Z,44.77
2017-04-29T11:38:02.881Z,46.97
2017-04-29T11:39:04.305Z,47.16
2017-04-29T11:40:05.732Z,43.62
2017-04-29T11:41:07.154Z,43.62
2017-04-29T11:42:08.584Z,42.48
2017-04-29T11:43:10.005Z,42.67
2017-04-29T11:44:11.444Z,43.89
2017-04-29T11:45:12.863Z,46.18
2017-04-29T11:46:14.297Z,45.42
2017-04-29T11:47:15.714Z,46.27
2017-04-29T11:48:17.140Z,47.34
2017-04-29T11:49:18.561Z,46.84
2017-04-29T11:50:19.992Z,48.94
2017-04-29T11:51:21.422Z,48.47
2017-04-29T11:52:22.854Z,47.92
2017-04-29T11:53:24.290Z,49.35
2017-04-29T11:54:25.729Z,50.59
2017-04-29T11:55:27.155Z,49.54
2017-04-29T11:56:28.583Z,48.02
2017-04-29T11:57:30.015Z,48.88
2017-04-29T11:58:31.440Z,49.64
2017-04-29T11:59:32.863Z,50.69
2017-04-29T12:00:34.296Z,47.34
2017-04-29T12:01:35.718Z,48.39
2017-04-29T12:02:37.154Z,48.80
2017-04-29T12:03:38.584Z,46.70
2017-04-29T12:04:40.015Z,47.94
2017-04-29T12:05:41.440Z,47.18
2017-04-29T12:06:42.865Z,44.67
2017-04-29T12:07:44.293Z,42.69
2017-04-29T12:08:45.715Z,40.97
2017-04-29T12:09:47.139Z,42.52
2017-04-29T12:10:48.566Z,43.00
2017-04-29T12:11:49.991Z,42.24
2017-04-29T12:12:51.422Z,43.40
2017-04-29T12:13:52.844Z,41.85
2017-04-29T12:14:54.272Z,40.61
2017-04-29T12:15:55.693Z,41.74
2017-04-29T12:16:57.125Z,41.45
2017-04-29T12:17:58.559Z,44.89
2017-04-29T12:18:59.983Z,43.55
2017-04-29T12:20:01.412Z,43.65
2017-04-29T12:21:02.866Z,43.24
2017-04-29T12:22:04.301Z,44.22
2017-04-29T12:23:05.726Z,45.65
2017-04-29T12:24:07.165Z,43.76
2017-04-29T12:25:08.588Z,45.75
2017-04-29T12:26:10.016Z,44.10
2017-04-29T12:27:11.445Z,46.11
2017-04-29T12:28:12.887Z,45.63
2017-04-29T12:29:14.312Z,45.92
2017-04-29T12:30:15.731Z,44.77
2017-04-29T12:31:17.233Z,46.22
2017-04-29T12:32:18.663Z,44.51
2017-04-29T12:33:20.089Z,45.27
2017-04-29T12:34:21.522Z,45.94
2017-04-29T12:35:22.947Z,46.42
2017-04-29T12:36:24.492Z,44.70
2017-04-29T12:37:25.952Z,43.74
2017-04-29T12:38:27.339Z,42.88
2017-04-29T12:39:28.773Z,43.07
2017-04-29T12:40:30.206Z,44.02
2017-04-29T12:41:31.643Z,45.37
2017-04-29T12:42:33.075Z,46.13
2017-04-29T12:43:34.506Z,47.18
2017-04-29T12:44:35.933Z,46.03
2017-04-29T12:45:37.355Z,43.07
2017-04-29T12:46:38.884Z,43.19
2017-04-29T12:47:40.311Z,42.83
2017-04-29T12:48:41.739Z,41.51
2017-04-29T12:49:43.180Z,39.33
2017-04-29T12:50:44.661Z,41.15
2017-04-29T12:51:46.100Z,41.46
2017-04-29T12:52:47.518Z,39.64
2017-04-29T12:53:48.949Z,39.25
2017-04-29T12:54:50.481Z,38.98
2017-04-29T12:55:51.907Z,37.43
2017-04-29T12:56:53.334Z,36.38
2017-04-29T12:57:54.831Z,36.36
2017-04-29T12:58:56.251Z,36.77
2017-04-29T12:59:57.681Z,37.53
2017-04-29T13:00:59.173Z,38.87
2017-04-29T13:02:00.601Z,36.38
2017-04-29T13:03:02.036Z,35.14
2017-04-29T13:04:03.462Z,36.86
2017-04-29T13:05:04.882Z,35.04
2017-04-29T13:06:06.312Z,38.12
2017-04-29T13:07:07.736Z,35.04
2017-04-29T13:08:09.260Z,33.99
2017-04-29T13:09:10.693Z,33.24
2017-04-29T13:10:12.121Z,31.59
2017-04-29T13:11:13.551Z,30.08